LIRF/FCO METAR and TAF weather

Enter ICAO airport designator
Station Type Date Time Source
LIRF METAR 2020/09/22 03:20 UTC NOAA

LIRF 220320Z 05002KT 9999 VCTS FEW020CB SCT030 19/19 Q1015 TEMPO 4000 TSRA


Station Type Date Time Source
LIRF Decoded METAR 2020/09/22 03:20 UTC NOAA

Roma Fiumicino, Italy (LIRF) 41-48N 012-14E 3M
Sep 21, 2020 - 11:20 PM EDT / 2020.09.22 0320 UTC
Wind: from the NE (050 degrees) at 2 MPH (2 KT):0
Visibility: greater than 7 mile(s):0
Sky conditions: partly cloudy
Weather: thunder in the vicinity; Cumulonimbus clouds observed
Temperature: 66 F (19 C)
Dew Point: 66 F (19 C)
Relative Humidity: 100%
Pressure (altimeter): 29.97 in. Hg (1015 hPa)
ob: LIRF 220320Z 05002KT 9999 VCTS FEW020CB SCT030 19/19 Q1015 TEMPO 4000 TSRA
cycle: 3

Station Type Date Time Source
LIRF TAF 2020/09/21 18:21 UTC NOAA

TAF LIRF 211700Z 2118/2224 VRB05KT 9999 SCT030
BECMG 2205/2207 15010KT
TEMPO 2206/2216 SHRA
BECMG 2210/2212 23010KT

Example: see airport list